sensor_id;sensor_type;location;lat;lon;timestamp;P1;durP1;ratioP1;P2;durP2;ratioP2
4642;SDS011;2334;48.710;9.622;2023-06-22T00:01:57;12.67;;;6.20;;
4642;SDS011;2334;48.710;9.622;2023-06-22T00:04:24;5.80;;;5.20;;
4642;SDS011;2334;48.710;9.622;2023-06-22T00:06:51;11.53;;;6.30;;
4642;SDS011;2334;48.710;9.622;2023-06-22T00:09:18;9.10;;;6.90;;
4642;SDS011;2334;48.710;9.622;2023-06-22T00:11:45;13.90;;;7.40;;
4642;SDS011;2334;48.710;9.622;2023-06-22T00:14:13;12.77;;;5.77;;
4642;SDS011;2334;48.710;9.622;2023-06-22T00:16:40;7.70;;;5.40;;
4642;SDS011;2334;48.710;9.622;2023-06-22T00:19:07;21.30;;;7.93;;
4642;SDS011;2334;48.710;9.622;2023-06-22T00:21:36;13.00;;;6.73;;
4642;SDS011;2334;48.710;9.622;2023-06-22T00:24:04;13.00;;;6.80;;
4642;SDS011;2334;48.710;9.622;2023-06-22T00:26:32;10.83;;;6.40;;
4642;SDS011;2334;48.710;9.622;2023-06-22T00:28:59;12.73;;;7.03;;
4642;SDS011;2334;48.710;9.622;2023-06-22T00:31:27;12.63;;;6.60;;
4642;SDS011;2334;48.710;9.622;2023-06-22T00:33:54;8.27;;;6.20;;
4642;SDS011;2334;48.710;9.622;2023-06-22T00:36:20;10.73;;;7.03;;
4642;SDS011;2334;48.710;9.622;2023-06-22T00:38:48;7.00;;;5.30;;
4642;SDS011;2334;48.710;9.622;2023-06-22T00:41:15;11.10;;;6.93;;
4642;SDS011;2334;48.710;9.622;2023-06-22T00:43:42;10.73;;;7.03;;
4642;SDS011;2334;48.710;9.622;2023-06-22T00:46:09;14.50;;;6.90;;
4642;SDS011;2334;48.710;9.622;2023-06-22T00:48:37;12.27;;;6.80;;
4642;SDS011;2334;48.710;9.622;2023-06-22T00:51:06;10.33;;;6.67;;
4642;SDS011;2334;48.710;9.622;2023-06-22T00:53:33;10.17;;;7.00;;
4642;SDS011;2334;48.710;9.622;2023-06-22T00:56:03;14.43;;;8.70;;
4642;SDS011;2334;48.710;9.622;2023-06-22T00:58:30;12.97;;;7.67;;
4642;SDS011;2334;48.710;9.622;2023-06-22T01:00:57;12.73;;;7.27;;
4642;SDS011;2334;48.710;9.622;2023-06-22T01:03:25;8.93;;;6.73;;
4642;SDS011;2334;48.710;9.622;2023-06-22T01:05:53;12.40;;;7.63;;
4642;SDS011;2334;48.710;9.622;2023-06-22T01:08:29;13.60;;;7.10;;
4642;SDS011;2334;48.710;9.622;2023-06-22T01:11:00;10.87;;;6.50;;
4642;SDS011;2334;48.710;9.622;2023-06-22T01:13:34;11.70;;;7.23;;
4642;SDS011;2334;48.710;9.622;2023-06-22T01:16:05;21.60;;;7.40;;
4642;SDS011;2334;48.710;9.622;2023-06-22T01:18:36;11.00;;;7.70;;
4642;SDS011;2334;48.710;9.622;2023-06-22T01:21:09;9.70;;;7.40;;
4642;SDS011;2334;48.710;9.622;2023-06-22T01:23:45;8.63;;;7.10;;
4642;SDS011;2334;48.710;9.622;2023-06-22T01:26:25;9.73;;;6.40;;
4642;SDS011;2334;48.710;9.622;2023-06-22T01:29:02;11.10;;;7.53;;
4642;SDS011;2334;48.710;9.622;2023-06-22T01:31:32;13.57;;;7.53;;
4642;SDS011;2334;48.710;9.622;2023-06-22T01:34:02;15.40;;;7.77;;
4642;SDS011;2334;48.710;9.622;2023-06-22T01:36:30;12.70;;;8.37;;
4642;SDS011;2334;48.710;9.622;2023-06-22T01:38:58;13.53;;;7.93;;
4642;SDS011;2334;48.710;9.622;2023-06-22T01:41:27;13.70;;;6.67;;
4642;SDS011;2334;48.710;9.622;2023-06-22T01:43:56;16.60;;;7.73;;
4642;SDS011;2334;48.710;9.622;2023-06-22T01:46:24;12.53;;;6.63;;
4642;SDS011;2334;48.710;9.622;2023-06-22T01:48:51;10.37;;;7.30;;
4642;SDS011;2334;48.710;9.622;2023-06-22T01:51:19;15.90;;;8.30;;
4642;SDS011;2334;48.710;9.622;2023-06-22T01:53:46;12.27;;;7.40;;
4642;SDS011;2334;48.710;9.622;2023-06-22T01:56:13;15.63;;;7.93;;
4642;SDS011;2334;48.710;9.622;2023-06-22T01:58:45;11.07;;;6.70;;
4642;SDS011;2334;48.710;9.622;2023-06-22T02:01:18;9.87;;;6.53;;
4642;SDS011;2334;48.710;9.622;2023-06-22T02:03:52;15.93;;;8.17;;
4642;SDS011;2334;48.710;9.622;2023-06-22T02:06:27;9.00;;;6.30;;
4642;SDS011;2334;48.710;9.622;2023-06-22T02:09:01;7.53;;;5.77;;
4642;SDS011;2334;48.710;9.622;2023-06-22T02:11:32;14.70;;;7.60;;
4642;SDS011;2334;48.710;9.622;2023-06-22T02:14:01;11.13;;;6.77;;
4642;SDS011;2334;48.710;9.622;2023-06-22T02:16:28;9.83;;;6.90;;
4642;SDS011;2334;48.710;9.622;2023-06-22T02:18:59;10.03;;;7.33;;
4642;SDS011;2334;48.710;9.622;2023-06-22T02:21:28;12.03;;;7.17;;
4642;SDS011;2334;48.710;9.622;2023-06-22T02:23:55;8.37;;;5.57;;
4642;SDS011;2334;48.710;9.622;2023-06-22T02:26:22;10.40;;;6.63;;
4642;SDS011;2334;48.710;9.622;2023-06-22T02:28:51;10.53;;;6.87;;
4642;SDS011;2334;48.710;9.622;2023-06-22T02:31:18;13.60;;;6.63;;
4642;SDS011;2334;48.710;9.622;2023-06-22T02:33:45;10.00;;;6.43;;
4642;SDS011;2334;48.710;9.622;2023-06-22T02:36:14;15.27;;;7.70;;
4642;SDS011;2334;48.710;9.622;2023-06-22T02:38:41;12.30;;;7.47;;
4642;SDS011;2334;48.710;9.622;2023-06-22T02:41:13;10.70;;;6.23;;
4642;SDS011;2334;48.710;9.622;2023-06-22T02:43:43;14.33;;;7.13;;
4642;SDS011;2334;48.710;9.622;2023-06-22T02:46:10;11.20;;;6.33;;
4642;SDS011;2334;48.710;9.622;2023-06-22T02:48:38;13.00;;;7.07;;
4642;SDS011;2334;48.710;9.622;2023-06-22T02:51:05;9.17;;;6.70;;
4642;SDS011;2334;48.710;9.622;2023-06-22T02:53:33;13.27;;;7.63;;
4642;SDS011;2334;48.710;9.622;2023-06-22T02:56:01;10.43;;;7.20;;
4642;SDS011;2334;48.710;9.622;2023-06-22T02:58:30;12.30;;;7.97;;
4642;SDS011;2334;48.710;9.622;2023-06-22T03:01:02;11.80;;;7.00;;
4642;SDS011;2334;48.710;9.622;2023-06-22T03:03:29;13.67;;;7.77;;
4642;SDS011;2334;48.710;9.622;2023-06-22T03:05:56;10.33;;;7.33;;
4642;SDS011;2334;48.710;9.622;2023-06-22T03:08:23;13.57;;;7.33;;
4642;SDS011;2334;48.710;9.622;2023-06-22T03:10:52;13.00;;;8.53;;
4642;SDS011;2334;48.710;9.622;2023-06-22T03:13:18;14.97;;;7.70;;
4642;SDS011;2334;48.710;9.622;2023-06-22T03:15:45;12.57;;;7.57;;
4642;SDS011;2334;48.710;9.622;2023-06-22T03:18:12;10.50;;;6.77;;
4642;SDS011;2334;48.710;9.622;2023-06-22T03:20:40;11.47;;;8.00;;
4642;SDS011;2334;48.710;9.622;2023-06-22T03:23:07;19.20;;;9.03;;
4642;SDS011;2334;48.710;9.622;2023-06-22T03:25:34;23.67;;;8.43;;
4642;SDS011;2334;48.710;9.622;2023-06-22T03:28:03;15.30;;;6.87;;
4642;SDS011;2334;48.710;9.622;2023-06-22T03:30:30;10.00;;;7.90;;
4642;SDS011;2334;48.710;9.622;2023-06-22T03:32:57;9.60;;;6.30;;
4642;SDS011;2334;48.710;9.622;2023-06-22T03:35:24;21.23;;;7.77;;
4642;SDS011;2334;48.710;9.622;2023-06-22T03:37:51;13.63;;;8.10;;
4642;SDS011;2334;48.710;9.622;2023-06-22T03:40:18;14.20;;;8.00;;
4642;SDS011;2334;48.710;9.622;2023-06-22T03:42:45;14.93;;;7.43;;
4642;SDS011;2334;48.710;9.622;2023-06-22T03:45:13;10.73;;;7.87;;
4642;SDS011;2334;48.710;9.622;2023-06-22T03:47:40;12.10;;;7.27;;
4642;SDS011;2334;48.710;9.622;2023-06-22T03:50:07;12.17;;;7.00;;
4642;SDS011;2334;48.710;9.622;2023-06-22T03:52:35;11.43;;;8.13;;
4642;SDS011;2334;48.710;9.622;2023-06-22T03:55:02;16.23;;;7.97;;
4642;SDS011;2334;48.710;9.622;2023-06-22T03:57:30;12.30;;;7.77;;
4642;SDS011;2334;48.710;9.622;2023-06-22T03:59:57;13.80;;;8.80;;
4642;SDS011;2334;48.710;9.622;2023-06-22T04:02:25;15.00;;;8.50;;
4642;SDS011;2334;48.710;9.622;2023-06-22T04:04:52;11.33;;;7.73;;
4642;SDS011;2334;48.710;9.622;2023-06-22T04:07:19;14.97;;;8.60;;
4642;SDS011;2334;48.710;9.622;2023-06-22T04:09:46;12.97;;;7.00;;
4642;SDS011;2334;48.710;9.622;2023-06-22T04:12:13;11.10;;;7.47;;
4642;SDS011;2334;48.710;9.622;2023-06-22T04:14:40;12.93;;;7.60;;
4642;SDS011;2334;48.710;9.622;2023-06-22T04:17:07;15.17;;;7.87;;
4642;SDS011;2334;48.710;9.622;2023-06-22T04:19:35;12.77;;;8.00;;
4642;SDS011;2334;48.710;9.622;2023-06-22T04:22:02;12.13;;;6.53;;
4642;SDS011;2334;48.710;9.622;2023-06-22T04:24:29;13.27;;;7.97;;
4642;SDS011;2334;48.710;9.622;2023-06-22T04:26:56;15.83;;;7.80;;
4642;SDS011;2334;48.710;9.622;2023-06-22T04:29:23;22.80;;;8.00;;
4642;SDS011;2334;48.710;9.622;2023-06-22T04:31:53;11.67;;;7.20;;
4642;SDS011;2334;48.710;9.622;2023-06-22T04:34:22;15.60;;;8.93;;
4642;SDS011;2334;48.710;9.622;2023-06-22T04:36:52;16.50;;;8.33;;
4642;SDS011;2334;48.710;9.622;2023-06-22T04:39:19;14.63;;;8.50;;
4642;SDS011;2334;48.710;9.622;2023-06-22T04:41:47;20.90;;;8.90;;
4642;SDS011;2334;48.710;9.622;2023-06-22T04:44:14;10.53;;;7.40;;
4642;SDS011;2334;48.710;9.622;2023-06-22T04:46:48;10.17;;;7.03;;
4642;SDS011;2334;48.710;9.622;2023-06-22T04:49:19;19.53;;;6.83;;
4642;SDS011;2334;48.710;9.622;2023-06-22T04:51:47;11.70;;;7.10;;
4642;SDS011;2334;48.710;9.622;2023-06-22T04:54:15;17.27;;;7.50;;
4642;SDS011;2334;48.710;9.622;2023-06-22T04:56:42;10.23;;;6.50;;
4642;SDS011;2334;48.710;9.622;2023-06-22T04:59:11;10.40;;;6.80;;
4642;SDS011;2334;48.710;9.622;2023-06-22T05:01:39;10.97;;;6.80;;
4642;SDS011;2334;48.710;9.622;2023-06-22T05:04:06;13.00;;;7.20;;
4642;SDS011;2334;48.710;9.622;2023-06-22T05:06:32;12.43;;;7.00;;
4642;SDS011;2334;48.710;9.622;2023-06-22T05:08:59;20.37;;;6.60;;
4642;SDS011;2334;48.710;9.622;2023-06-22T05:11:29;13.23;;;6.70;;
4642;SDS011;2334;48.710;9.622;2023-06-22T05:13:56;10.00;;;6.40;;
4642;SDS011;2334;48.710;9.622;2023-06-22T05:16:23;10.13;;;6.70;;
4642;SDS011;2334;48.710;9.622;2023-06-22T05:18:51;14.27;;;8.10;;
4642;SDS011;2334;48.710;9.622;2023-06-22T05:21:21;11.03;;;6.93;;
4642;SDS011;2334;48.710;9.622;2023-06-22T05:23:49;15.13;;;8.93;;
4642;SDS011;2334;48.710;9.622;2023-06-22T05:26:16;14.97;;;8.53;;
4642;SDS011;2334;48.710;9.622;2023-06-22T05:28:44;9.83;;;6.90;;
4642;SDS011;2334;48.710;9.622;2023-06-22T05:31:12;14.00;;;8.17;;
4642;SDS011;2334;48.710;9.622;2023-06-22T05:33:39;11.70;;;6.60;;
4642;SDS011;2334;48.710;9.622;2023-06-22T05:36:06;13.27;;;6.70;;
4642;SDS011;2334;48.710;9.622;2023-06-22T05:38:34;11.93;;;6.87;;
4642;SDS011;2334;48.710;9.622;2023-06-22T05:41:01;14.57;;;6.00;;
4642;SDS011;2334;48.710;9.622;2023-06-22T05:43:28;13.30;;;6.90;;
4642;SDS011;2334;48.710;9.622;2023-06-22T05:45:56;9.63;;;5.97;;
4642;SDS011;2334;48.710;9.622;2023-06-22T05:48:23;7.63;;;6.20;;
4642;SDS011;2334;48.710;9.622;2023-06-22T05:50:50;11.50;;;5.23;;
4642;SDS011;2334;48.710;9.622;2023-06-22T05:53:17;11.73;;;6.60;;
4642;SDS011;2334;48.710;9.622;2023-06-22T05:55:44;10.83;;;6.43;;
4642;SDS011;2334;48.710;9.622;2023-06-22T05:58:11;11.33;;;6.13;;
4642;SDS011;2334;48.710;9.622;2023-06-22T06:00:39;8.50;;;5.53;;
4642;SDS011;2334;48.710;9.622;2023-06-22T06:03:08;10.30;;;5.23;;
4642;SDS011;2334;48.710;9.622;2023-06-22T06:05:35;6.80;;;5.20;;
4642;SDS011;2334;48.710;9.622;2023-06-22T06:08:03;8.13;;;5.53;;
4642;SDS011;2334;48.710;9.622;2023-06-22T06:10:32;13.77;;;6.53;;
4642;SDS011;2334;48.710;9.622;2023-06-22T06:12:59;10.43;;;5.87;;
4642;SDS011;2334;48.710;9.622;2023-06-22T06:15:29;9.70;;;5.57;;
4642;SDS011;2334;48.710;9.622;2023-06-22T06:17:57;13.60;;;5.57;;
4642;SDS011;2334;48.710;9.622;2023-06-22T06:20:25;10.10;;;5.17;;
4642;SDS011;2334;48.710;9.622;2023-06-22T06:22:53;10.30;;;5.60;;
4642;SDS011;2334;48.710;9.622;2023-06-22T06:25:20;10.80;;;5.20;;
4642;SDS011;2334;48.710;9.622;2023-06-22T06:27:47;12.20;;;4.80;;
4642;SDS011;2334;48.710;9.622;2023-06-22T06:30:17;12.07;;;6.30;;
4642;SDS011;2334;48.710;9.622;2023-06-22T06:32:44;7.73;;;5.43;;
4642;SDS011;2334;48.710;9.622;2023-06-22T06:35:12;8.10;;;5.60;;
4642;SDS011;2334;48.710;9.622;2023-06-22T06:37:42;8.37;;;4.50;;
4642;SDS011;2334;48.710;9.622;2023-06-22T06:40:10;10.70;;;3.70;;
4642;SDS011;2334;48.710;9.622;2023-06-22T06:42:38;7.60;;;2.77;;
4642;SDS011;2334;48.710;9.622;2023-06-22T06:45:07;5.57;;;2.90;;
4642;SDS011;2334;48.710;9.622;2023-06-22T06:47:35;5.13;;;2.77;;
4642;SDS011;2334;48.710;9.622;2023-06-22T06:50:02;7.33;;;3.10;;
4642;SDS011;2334;48.710;9.622;2023-06-22T06:52:29;9.13;;;3.60;;
4642;SDS011;2334;48.710;9.622;2023-06-22T06:54:57;10.43;;;3.40;;
4642;SDS011;2334;48.710;9.622;2023-06-22T06:57:24;11.07;;;4.10;;
4642;SDS011;2334;48.710;9.622;2023-06-22T06:59:54;3.30;;;2.83;;
4642;SDS011;2334;48.710;9.622;2023-06-22T07:02:21;6.53;;;3.93;;
4642;SDS011;2334;48.710;9.622;2023-06-22T07:04:49;5.90;;;3.10;;
4642;SDS011;2334;48.710;9.622;2023-06-22T07:07:16;5.30;;;3.33;;
4642;SDS011;2334;48.710;9.622;2023-06-22T07:09:43;5.70;;;3.70;;
4642;SDS011;2334;48.710;9.622;2023-06-22T07:12:11;5.97;;;3.00;;
4642;SDS011;2334;48.710;9.622;2023-06-22T07:14:38;3.60;;;2.90;;
4642;SDS011;2334;48.710;9.622;2023-06-22T07:17:05;4.13;;;2.93;;
4642;SDS011;2334;48.710;9.622;2023-06-22T07:19:32;11.17;;;3.60;;
4642;SDS011;2334;48.710;9.622;2023-06-22T07:21:59;10.57;;;3.30;;
4642;SDS011;2334;48.710;9.622;2023-06-22T07:24:26;12.20;;;3.30;;
4642;SDS011;2334;48.710;9.622;2023-06-22T07:26:53;5.97;;;3.40;;
4642;SDS011;2334;48.710;9.622;2023-06-22T07:29:22;10.70;;;4.40;;
4642;SDS011;2334;48.710;9.622;2023-06-22T07:31:49;11.00;;;4.00;;
4642;SDS011;2334;48.710;9.622;2023-06-22T07:34:17;7.27;;;3.00;;
4642;SDS011;2334;48.710;9.622;2023-06-22T07:36:44;8.63;;;3.43;;
4642;SDS011;2334;48.710;9.622;2023-06-22T07:39:11;7.63;;;3.37;;
4642;SDS011;2334;48.710;9.622;2023-06-22T07:41:39;7.30;;;3.73;;
4642;SDS011;2334;48.710;9.622;2023-06-22T07:44:07;6.90;;;4.10;;
4642;SDS011;2334;48.710;9.622;2023-06-22T07:46:35;11.03;;;3.27;;
4642;SDS011;2334;48.710;9.622;2023-06-22T07:49:02;7.20;;;3.67;;
4642;SDS011;2334;48.710;9.622;2023-06-22T07:51:29;9.53;;;3.80;;
4642;SDS011;2334;48.710;9.622;2023-06-22T07:53:56;8.97;;;3.37;;
4642;SDS011;2334;48.710;9.622;2023-06-22T07:56:22;4.83;;;3.10;;
4642;SDS011;2334;48.710;9.622;2023-06-22T07:58:49;12.47;;;4.20;;
4642;SDS011;2334;48.710;9.622;2023-06-22T08:01:16;6.03;;;3.37;;
4642;SDS011;2334;48.710;9.622;2023-06-22T08:03:47;11.33;;;3.87;;
4642;SDS011;2334;48.710;9.622;2023-06-22T08:06:14;11.33;;;3.33;;
4642;SDS011;2334;48.710;9.622;2023-06-22T08:08:41;7.13;;;3.53;;
4642;SDS011;2334;48.710;9.622;2023-06-22T08:11:09;6.50;;;3.20;;
4642;SDS011;2334;48.710;9.622;2023-06-22T08:13:35;4.30;;;2.90;;
4642;SDS011;2334;48.710;9.622;2023-06-22T08:16:02;11.60;;;3.77;;
4642;SDS011;2334;48.710;9.622;2023-06-22T08:18:30;6.63;;;3.13;;
4642;SDS011;2334;48.710;9.622;2023-06-22T08:20:58;11.03;;;2.93;;
4642;SDS011;2334;48.710;9.622;2023-06-22T08:23:25;7.20;;;4.07;;
4642;SDS011;2334;48.710;9.622;2023-06-22T08:25:51;9.27;;;3.73;;
4642;SDS011;2334;48.710;9.622;2023-06-22T08:28:18;8.07;;;4.37;;
4642;SDS011;2334;48.710;9.622;2023-06-22T08:30:45;7.63;;;4.07;;
4642;SDS011;2334;48.710;9.622;2023-06-22T08:33:12;8.93;;;3.60;;
4642;SDS011;2334;48.710;9.622;2023-06-22T08:35:39;11.10;;;3.97;;
4642;SDS011;2334;48.710;9.622;2023-06-22T08:38:07;9.80;;;3.50;;
4642;SDS011;2334;48.710;9.622;2023-06-22T08:40:34;8.70;;;3.93;;
4642;SDS011;2334;48.710;9.622;2023-06-22T08:43:01;11.73;;;3.63;;
4642;SDS011;2334;48.710;9.622;2023-06-22T08:45:28;9.83;;;4.53;;
4642;SDS011;2334;48.710;9.622;2023-06-22T08:47:55;6.83;;;3.80;;
4642;SDS011;2334;48.710;9.622;2023-06-22T08:50:22;7.90;;;3.30;;
4642;SDS011;2334;48.710;9.622;2023-06-22T08:52:49;7.90;;;4.43;;
4642;SDS011;2334;48.710;9.622;2023-06-22T08:55:18;5.57;;;3.50;;
4642;SDS011;2334;48.710;9.622;2023-06-22T08:57:45;12.53;;;3.50;;
4642;SDS011;2334;48.710;9.622;2023-06-22T09:00:12;7.17;;;4.00;;
4642;SDS011;2334;48.710;9.622;2023-06-22T09:02:44;10.73;;;4.03;;
4642;SDS011;2334;48.710;9.622;2023-06-22T09:05:11;7.57;;;3.77;;
4642;SDS011;2334;48.710;9.622;2023-06-22T09:07:53;7.23;;;3.80;;
4642;SDS011;2334;48.710;9.622;2023-06-22T09:10:25;9.03;;;4.10;;
4642;SDS011;2334;48.710;9.622;2023-06-22T09:12:51;14.83;;;5.20;;
4642;SDS011;2334;48.710;9.622;2023-06-22T09:15:18;5.70;;;3.90;;
4642;SDS011;2334;48.710;9.622;2023-06-22T09:17:45;12.90;;;4.20;;
4642;SDS011;2334;48.710;9.622;2023-06-22T09:20:12;19.93;;;4.60;;
4642;SDS011;2334;48.710;9.622;2023-06-22T09:22:39;7.37;;;4.83;;
4642;SDS011;2334;48.710;9.622;2023-06-22T09:25:07;9.40;;;3.90;;
4642;SDS011;2334;48.710;9.622;2023-06-22T09:27:35;10.40;;;4.47;;
4642;SDS011;2334;48.710;9.622;2023-06-22T09:30:03;4.97;;;4.00;;
4642;SDS011;2334;48.710;9.622;2023-06-22T09:32:31;12.00;;;4.33;;
4642;SDS011;2334;48.710;9.622;2023-06-22T09:34:58;8.30;;;4.60;;
4642;SDS011;2334;48.710;9.622;2023-06-22T09:37:25;14.90;;;5.27;;
4642;SDS011;2334;48.710;9.622;2023-06-22T09:39:53;7.17;;;4.30;;
4642;SDS011;2334;48.710;9.622;2023-06-22T09:42:19;14.00;;;5.33;;
4642;SDS011;2334;48.710;9.622;2023-06-22T09:44:48;9.17;;;4.10;;
4642;SDS011;2334;48.710;9.622;2023-06-22T09:47:14;10.53;;;3.77;;
4642;SDS011;2334;48.710;9.622;2023-06-22T09:49:41;12.40;;;4.53;;
4642;SDS011;2334;48.710;9.622;2023-06-22T09:52:08;8.83;;;3.73;;
4642;SDS011;2334;48.710;9.622;2023-06-22T09:54:36;14.40;;;4.80;;
4642;SDS011;2334;48.710;9.622;2023-06-22T09:57:03;11.50;;;3.87;;
4642;SDS011;2334;48.710;9.622;2023-06-22T09:59:30;5.30;;;3.63;;
4642;SDS011;2334;48.710;9.622;2023-06-22T10:01:58;8.73;;;4.13;;
4642;SDS011;2334;48.710;9.622;2023-06-22T10:04:25;7.60;;;4.57;;
4642;SDS011;2334;48.710;9.622;2023-06-22T10:06:52;8.03;;;4.20;;
4642;SDS011;2334;48.710;9.622;2023-06-22T10:09:19;10.10;;;4.30;;
4642;SDS011;2334;48.710;9.622;2023-06-22T10:11:46;11.07;;;5.03;;
4642;SDS011;2334;48.710;9.622;2023-06-22T10:14:13;4.90;;;3.77;;
4642;SDS011;2334;48.710;9.622;2023-06-22T10:16:40;15.10;;;4.87;;
4642;SDS011;2334;48.710;9.622;2023-06-22T10:19:08;6.90;;;4.63;;
4642;SDS011;2334;48.710;9.622;2023-06-22T10:21:35;7.10;;;3.70;;
4642;SDS011;2334;48.710;9.622;2023-06-22T10:24:02;13.20;;;4.00;;
4642;SDS011;2334;48.710;9.622;2023-06-22T10:26:31;11.97;;;4.90;;
4642;SDS011;2334;48.710;9.622;2023-06-22T10:28:59;10.10;;;4.27;;
4642;SDS011;2334;48.710;9.622;2023-06-22T10:31:26;7.97;;;4.27;;
4642;SDS011;2334;48.710;9.622;2023-06-22T10:33:53;6.40;;;4.67;;
4642;SDS011;2334;48.710;9.622;2023-06-22T10:36:22;11.37;;;4.27;;
4642;SDS011;2334;48.710;9.622;2023-06-22T10:38:49;7.53;;;4.37;;
4642;SDS011;2334;48.710;9.622;2023-06-22T10:41:17;8.03;;;4.20;;
4642;SDS011;2334;48.710;9.622;2023-06-22T10:43:44;9.77;;;4.27;;
4642;SDS011;2334;48.710;9.622;2023-06-22T10:46:12;10.40;;;4.60;;
4642;SDS011;2334;48.710;9.622;2023-06-22T10:48:39;6.37;;;4.17;;
4642;SDS011;2334;48.710;9.622;2023-06-22T10:51:05;17.13;;;4.13;;
4642;SDS011;2334;48.710;9.622;2023-06-22T10:53:34;15.43;;;4.80;;
4642;SDS011;2334;48.710;9.622;2023-06-22T10:56:00;9.93;;;4.47;;
4642;SDS011;2334;48.710;9.622;2023-06-22T10:58:27;10.00;;;4.43;;
4642;SDS011;2334;48.710;9.622;2023-06-22T11:00:54;15.53;;;4.73;;
4642;SDS011;2334;48.710;9.622;2023-06-22T11:03:21;20.17;;;4.80;;
4642;SDS011;2334;48.710;9.622;2023-06-22T11:05:48;10.67;;;4.10;;
4642;SDS011;2334;48.710;9.622;2023-06-22T11:08:15;10.30;;;4.10;;
4642;SDS011;2334;48.710;9.622;2023-06-22T11:10:43;18.37;;;5.13;;
4642;SDS011;2334;48.710;9.622;2023-06-22T11:13:10;16.23;;;4.93;;
4642;SDS011;2334;48.710;9.622;2023-06-22T11:15:38;13.33;;;4.53;;
4642;SDS011;2334;48.710;9.622;2023-06-22T11:18:10;15.10;;;4.80;;
4642;SDS011;2334;48.710;9.622;2023-06-22T11:20:37;10.43;;;3.90;;
4642;SDS011;2334;48.710;9.622;2023-06-22T11:23:05;17.53;;;6.73;;
4642;SDS011;2334;48.710;9.622;2023-06-22T11:25:33;9.63;;;4.53;;
4642;SDS011;2334;48.710;9.622;2023-06-22T11:28:02;18.33;;;4.77;;
4642;SDS011;2334;48.710;9.622;2023-06-22T11:30:30;10.00;;;4.40;;
4642;SDS011;2334;48.710;9.622;2023-06-22T11:32:58;15.97;;;5.17;;
4642;SDS011;2334;48.710;9.622;2023-06-22T11:35:25;12.37;;;4.43;;
4642;SDS011;2334;48.710;9.622;2023-06-22T11:37:52;9.90;;;4.97;;
4642;SDS011;2334;48.710;9.622;2023-06-22T11:40:21;10.20;;;5.30;;
4642;SDS011;2334;48.710;9.622;2023-06-22T11:42:50;8.57;;;5.20;;
4642;SDS011;2334;48.710;9.622;2023-06-22T11:45:22;9.03;;;5.53;;
4642;SDS011;2334;48.710;9.622;2023-06-22T11:47:49;10.80;;;4.43;;
4642;SDS011;2334;48.710;9.622;2023-06-22T11:50:17;12.03;;;5.03;;
4642;SDS011;2334;48.710;9.622;2023-06-22T11:52:43;13.17;;;5.20;;
4642;SDS011;2334;48.710;9.622;2023-06-22T11:55:11;13.73;;;5.37;;
4642;SDS011;2334;48.710;9.622;2023-06-22T11:57:38;14.43;;;6.07;;
4642;SDS011;2334;48.710;9.622;2023-06-22T12:00:18;11.30;;;5.93;;
4642;SDS011;2334;48.710;9.622;2023-06-22T12:02:48;11.17;;;4.70;;
4642;SDS011;2334;48.710;9.622;2023-06-22T12:05:16;14.67;;;4.73;;
4642;SDS011;2334;48.710;9.622;2023-06-22T12:07:44;12.30;;;4.50;;
4642;SDS011;2334;48.710;9.622;2023-06-22T12:10:11;9.47;;;5.10;;
4642;SDS011;2334;48.710;9.622;2023-06-22T12:12:38;11.47;;;5.37;;
4642;SDS011;2334;48.710;9.622;2023-06-22T12:15:05;6.30;;;4.50;;
4642;SDS011;2334;48.710;9.622;2023-06-22T12:17:33;12.63;;;4.40;;
4642;SDS011;2334;48.710;9.622;2023-06-22T12:20:02;13.80;;;5.20;;
4642;SDS011;2334;48.710;9.622;2023-06-22T12:22:31;8.23;;;4.40;;
4642;SDS011;2334;48.710;9.622;2023-06-22T12:24:59;15.40;;;4.63;;
4642;SDS011;2334;48.710;9.622;2023-06-22T12:27:26;7.00;;;4.60;;
4642;SDS011;2334;48.710;9.622;2023-06-22T12:29:53;9.20;;;4.87;;
4642;SDS011;2334;48.710;9.622;2023-06-22T12:32:20;12.20;;;4.20;;
4642;SDS011;2334;48.710;9.622;2023-06-22T12:34:47;17.50;;;4.10;;
4642;SDS011;2334;48.710;9.622;2023-06-22T12:37:15;12.90;;;4.60;;
4642;SDS011;2334;48.710;9.622;2023-06-22T12:39:43;12.67;;;4.87;;
4642;SDS011;2334;48.710;9.622;2023-06-22T12:42:10;9.87;;;4.40;;
4642;SDS011;2334;48.710;9.622;2023-06-22T12:44:37;7.87;;;4.73;;
4642;SDS011;2334;48.710;9.622;2023-06-22T12:47:05;8.30;;;4.20;;
4642;SDS011;2334;48.710;9.622;2023-06-22T12:49:33;14.50;;;4.53;;
4642;SDS011;2334;48.710;9.622;2023-06-22T12:52:00;9.83;;;4.77;;
4642;SDS011;2334;48.710;9.622;2023-06-22T12:54:28;10.27;;;4.23;;
4642;SDS011;2334;48.710;9.622;2023-06-22T12:56:55;10.30;;;4.50;;
4642;SDS011;2334;48.710;9.622;2023-06-22T12:59:22;16.40;;;4.67;;
4642;SDS011;2334;48.710;9.622;2023-06-22T13:01:49;10.97;;;5.30;;
4642;SDS011;2334;48.710;9.622;2023-06-22T13:04:16;8.60;;;4.20;;
4642;SDS011;2334;48.710;9.622;2023-06-22T13:06:43;17.80;;;5.30;;
4642;SDS011;2334;48.710;9.622;2023-06-22T13:09:13;8.43;;;4.40;;
4642;SDS011;2334;48.710;9.622;2023-06-22T13:11:42;11.60;;;5.20;;
4642;SDS011;2334;48.710;9.622;2023-06-22T13:14:09;8.00;;;4.83;;
4642;SDS011;2334;48.710;9.622;2023-06-22T13:16:36;15.57;;;5.17;;
4642;SDS011;2334;48.710;9.622;2023-06-22T13:19:03;7.03;;;4.67;;
4642;SDS011;2334;48.710;9.622;2023-06-22T13:21:30;10.30;;;4.63;;
4642;SDS011;2334;48.710;9.622;2023-06-22T13:23:59;8.20;;;4.70;;
4642;SDS011;2334;48.710;9.622;2023-06-22T13:26:26;10.50;;;4.20;;
4642;SDS011;2334;48.710;9.622;2023-06-22T13:28:55;11.57;;;3.90;;
4642;SDS011;2334;48.710;9.622;2023-06-22T13:31:22;11.47;;;4.80;;
4642;SDS011;2334;48.710;9.622;2023-06-22T13:33:49;7.30;;;4.33;;
4642;SDS011;2334;48.710;9.622;2023-06-22T13:36:17;14.03;;;5.13;;
4642;SDS011;2334;48.710;9.622;2023-06-22T13:38:44;9.13;;;4.10;;
4642;SDS011;2334;48.710;9.622;2023-06-22T13:41:12;9.80;;;5.23;;
4642;SDS011;2334;48.710;9.622;2023-06-22T13:43:39;7.43;;;4.23;;
4642;SDS011;2334;48.710;9.622;2023-06-22T13:46:07;10.53;;;4.20;;
4642;SDS011;2334;48.710;9.622;2023-06-22T13:48:34;13.80;;;4.83;;
4642;SDS011;2334;48.710;9.622;2023-06-22T13:51:01;13.97;;;4.63;;
4642;SDS011;2334;48.710;9.622;2023-06-22T13:53:28;8.80;;;4.60;;
4642;SDS011;2334;48.710;9.622;2023-06-22T13:55:55;14.47;;;4.77;;
4642;SDS011;2334;48.710;9.622;2023-06-22T13:58:23;6.90;;;4.40;;
4642;SDS011;2334;48.710;9.622;2023-06-22T14:00:50;17.27;;;5.30;;
4642;SDS011;2334;48.710;9.622;2023-06-22T14:03:18;11.80;;;4.83;;
4642;SDS011;2334;48.710;9.622;2023-06-22T14:05:45;14.90;;;5.10;;
4642;SDS011;2334;48.710;9.622;2023-06-22T14:08:13;6.93;;;4.50;;
4642;SDS011;2334;48.710;9.622;2023-06-22T14:10:40;13.20;;;4.53;;
4642;SDS011;2334;48.710;9.622;2023-06-22T14:13:07;14.83;;;4.30;;
4642;SDS011;2334;48.710;9.622;2023-06-22T14:15:34;7.70;;;4.13;;
4642;SDS011;2334;48.710;9.622;2023-06-22T14:18:01;6.47;;;4.30;;
4642;SDS011;2334;48.710;9.622;2023-06-22T14:20:29;9.93;;;3.83;;
4642;SDS011;2334;48.710;9.622;2023-06-22T14:22:56;11.23;;;4.70;;
4642;SDS011;2334;48.710;9.622;2023-06-22T14:25:23;11.23;;;4.53;;
4642;SDS011;2334;48.710;9.622;2023-06-22T14:27:49;8.73;;;3.70;;
4642;SDS011;2334;48.710;9.622;2023-06-22T14:30:16;14.73;;;5.30;;
4642;SDS011;2334;48.710;9.622;2023-06-22T14:32:43;9.60;;;4.00;;
4642;SDS011;2334;48.710;9.622;2023-06-22T14:35:11;10.27;;;3.60;;
4642;SDS011;2334;48.710;9.622;2023-06-22T14:37:39;11.80;;;4.40;;
4642;SDS011;2334;48.710;9.622;2023-06-22T14:40:06;9.07;;;4.50;;
4642;SDS011;2334;48.710;9.622;2023-06-22T14:42:34;6.30;;;3.80;;
4642;SDS011;2334;48.710;9.622;2023-06-22T14:45:00;9.90;;;4.20;;
4642;SDS011;2334;48.710;9.622;2023-06-22T14:47:27;9.83;;;4.40;;
4642;SDS011;2334;48.710;9.622;2023-06-22T14:49:54;9.23;;;3.70;;
4642;SDS011;2334;48.710;9.622;2023-06-22T14:52:21;9.97;;;4.83;;
4642;SDS011;2334;48.710;9.622;2023-06-22T14:54:49;16.00;;;4.00;;
4642;SDS011;2334;48.710;9.622;2023-06-22T14:57:17;12.83;;;4.33;;
4642;SDS011;2334;48.710;9.622;2023-06-22T14:59:45;7.17;;;3.00;;
4642;SDS011;2334;48.710;9.622;2023-06-22T15:02:12;13.37;;;4.53;;
4642;SDS011;2334;48.710;9.622;2023-06-22T15:04:39;9.57;;;3.30;;
4642;SDS011;2334;48.710;9.622;2023-06-22T15:07:06;7.37;;;3.00;;
4642;SDS011;2334;48.710;9.622;2023-06-22T15:09:33;8.17;;;3.77;;